Time;durP1;ratioP1;P1;durP2;ratioP2;P2;SDS_P1;SDS_P2;PMS_P1;PMS_P2;Temp;Humidity;BMP_temperature;BMP_pressure;BME280_temperature;BME280_humidity;BME280_pressure;Samples;Min_cycle;Max_cycle;Signal;HPM_P1;HPM_P2
2022/01/21 00:00:19;;;;;;;9.70;9.40;;;0.30;99.90;;;;;;5107763;28;20280;-84
2022/01/21 00:02:48;;;;;;;9.73;9.43;;;0.30;99.90;;;;;;5107696;28;20247;-82
2022/01/21 00:05:18;;;;;;;9.70;9.40;;;0.30;99.90;;;;;;5091674;28;21062;-82
2022/01/21 00:07:47;;;;;;;9.83;9.53;;;0.30;99.90;;;;;;5086676;28;20237;-84
2022/01/21 00:10:17;;;;;;;10.07;9.77;;;0.30;99.90;;;;;;5088289;28;20245;-82
2022/01/21 00:12:46;;;;;;;9.67;9.37;;;0.30;99.90;;;;;;5099349;28;20232;-83
2022/01/21 00:15:18;;;;;;;9.90;9.60;;;0.30;99.90;;;;;;5099087;28;20233;-82
2022/01/21 00:17:46;;;;;;;9.97;9.67;;;0.30;99.90;;;;;;5108964;28;20234;-82
2022/01/21 00:31:16;;;;;;;10.60;10.30;;;0.20;99.90;;;;;;5113924;28;20193;-82
2022/01/21 00:33:44;;;;;;;9.97;9.67;;;0.10;99.90;;;;;;5109945;28;21165;-82
2022/01/21 00:36:13;;;;;;;10.40;10.10;;;0.00;99.90;;;;;;5109145;28;20263;-82
2022/01/21 00:38:43;;;;;;;10.80;10.50;;;0.00;99.90;;;;;;5106887;28;20237;-82
2022/01/21 00:41:16;;;;;;;10.60;10.30;;;0.00;99.90;;;;;;5105973;28;20223;-82
2022/01/21 00:43:49;;;;;;;10.80;10.50;;;0.00;99.90;;;;;;5107844;28;20237;-83
2022/01/21 00:46:27;;;;;;;10.60;10.30;;;-0.20;99.90;;;;;;5108728;28;20300;-83
2022/01/21 00:48:57;;;;;;;8.70;8.50;;;-0.20;99.90;;;;;;5108283;28;20371;-83
2022/01/21 00:51:26;;;;;;;10.10;9.80;;;-0.50;99.90;;;;;;5107467;28;20259;-83
2022/01/21 00:53:56;;;;;;;10.30;10.00;;;-0.70;99.90;;;;;;5102452;28;20237;-83
2022/01/21 00:56:25;;;;;;;10.10;9.80;;;-0.90;99.90;;;;;;5086952;28;20244;-83
2022/01/21 00:58:54;;;;;;;10.20;9.90;;;-0.90;99.90;;;;;;5086875;28;20242;-81
2022/01/21 01:01:33;;;;;;;10.20;9.90;;;-1.00;99.90;;;;;;5087109;28;20226;-82
2022/01/21 01:04:02;;;;;;;10.00;9.70;;;-1.10;99.90;;;;;;5086428;28;20240;-82
2022/01/21 01:06:32;;;;;;;9.60;9.30;;;-1.10;99.90;;;;;;5086538;28;20238;-82
2022/01/21 01:09:01;;;;;;;9.60;9.30;;;-1.20;99.90;;;;;;5086203;28;20220;-83
2022/01/21 01:11:43;;;;;;;9.20;8.90;;;-1.20;99.90;;;;;;5087043;28;20648;-81
2022/01/21 01:20:03;;;;;;;9.40;9.10;;;-1.20;99.90;;;;;;5091018;28;20213;-82
2022/01/21 01:22:44;;;;;;;9.67;9.37;;;-1.20;99.90;;;;;;5089718;28;20252;-83
2022/01/21 01:27:58;;;;;;;9.50;9.20;;;-1.10;99.90;;;;;;5089545;28;20207;-83
2022/01/21 01:30:28;;;;;;;9.80;9.50;;;-1.10;99.90;;;;;;5090230;28;20236;-83
2022/01/21 01:33:10;;;;;;;9.70;9.40;;;-1.10;99.90;;;;;;5089538;28;20214;-83
2022/01/21 01:41:06;;;;;;;9.70;9.40;;;-1.00;99.90;;;;;;5088238;28;20240;-83
2022/01/21 01:49:30;;;;;;;9.50;9.20;;;-0.80;99.90;;;;;;5102782;28;20205;-83
2022/01/21 01:52:00;;;;;;;9.70;9.40;;;-0.80;99.90;;;;;;5102423;28;20234;-83
2022/01/21 01:54:29;;;;;;;9.80;9.50;;;-0.80;99.90;;;;;;5099043;28;20222;-83
2022/01/21 01:56:59;;;;;;;9.63;9.33;;;-0.80;99.90;;;;;;5093149;28;20241;-83
2022/01/21 01:59:28;;;;;;;9.73;9.43;;;-0.80;99.90;;;;;;5090578;28;20251;-83
2022/01/21 02:01:59;;;;;;;9.30;9.00;;;-0.80;99.90;;;;;;5090091;28;20319;-83
2022/01/21 02:04:35;;;;;;;9.27;8.97;;;-0.90;99.90;;;;;;5086277;28;20241;-82
2022/01/21 02:07:04;;;;;;;9.53;9.23;;;-0.90;99.90;;;;;;5089518;28;20256;-83
2022/01/21 02:09:33;;;;;;;9.30;9.00;;;-0.90;99.90;;;;;;5088345;28;20260;-83
2022/01/21 02:12:03;;;;;;;9.20;8.90;;;-0.90;99.90;;;;;;5087915;28;20287;-83
2022/01/21 02:14:35;;;;;;;9.50;9.20;;;-0.90;99.90;;;;;;5088235;28;20230;-84
2022/01/21 02:21:28;;;;;;;9.40;9.10;;;-0.90;99.90;;;;;;5088714;28;20233;-83
2022/01/21 02:23:02;;;;;;;9.07;8.77;;;-0.80;99.90;;;;;;5087713;28;20222;-83
2022/01/21 02:25:32;;;;;;;9.30;9.00;;;-0.70;99.90;;;;;;5088136;28;20218;-83
2022/01/21 02:28:01;;;;;;;9.33;9.03;;;-0.70;99.90;;;;;;5089531;28;20252;-83
2022/01/21 02:30:31;;;;;;;9.33;9.03;;;-0.70;99.90;;;;;;5089742;28;20262;-83
2022/01/21 02:33:00;;;;;;;9.20;8.90;;;-0.70;99.90;;;;;;5088607;28;20241;-83
2022/01/21 02:35:30;;;;;;;9.53;9.23;;;-0.70;99.90;;;;;;5088193;28;20234;-82
2022/01/21 02:38:02;;;;;;;9.37;9.07;;;-0.70;99.90;;;;;;5088595;28;20233;-83
2022/01/21 02:40:29;;;;;;;9.30;9.00;;;-0.60;99.90;;;;;;5088841;28;20311;-82
2022/01/21 02:42:58;;;;;;;9.50;9.20;;;-0.60;99.90;;;;;;5088147;28;20222;-83
2022/01/21 02:45:27;;;;;;;9.20;8.90;;;-0.60;99.90;;;;;;5088017;28;20229;-83
2022/01/21 02:47:56;;;;;;;9.20;8.90;;;-0.50;99.90;;;;;;5087957;28;20233;-83
2022/01/21 02:50:26;;;;;;;9.10;8.80;;;-0.50;99.90;;;;;;5088890;28;20320;-83
2022/01/21 02:53:08;;;;;;;8.57;8.37;;;-0.50;99.90;;;;;;5094501;28;20222;-83
2022/01/21 02:58:21;;;;;;;8.70;8.50;;;-0.50;99.90;;;;;;5090018;28;20298;-82
2022/01/21 03:00:51;;;;;;;8.60;8.40;;;-0.60;99.90;;;;;;5090103;28;20234;-83
2022/01/21 03:03:19;;;;;;;8.63;8.43;;;-0.70;99.90;;;;;;5087083;28;20241;-83
2022/01/21 03:05:50;;;;;;;8.40;8.20;;;-0.90;99.90;;;;;;5088123;28;20225;-82
2022/01/21 03:08:18;;;;;;;8.40;8.20;;;-0.90;99.90;;;;;;5088459;28;20225;-83
2022/01/21 03:13:35;;;;;;;8.60;8.40;;;-1.10;99.90;;;;;;5086229;28;20241;-82
2022/01/21 03:16:04;;;;;;;8.47;8.27;;;-1.10;99.90;;;;;;5087582;28;20259;-83
2022/01/21 03:18:34;;;;;;;8.60;8.40;;;-1.20;99.90;;;;;;5087002;28;20226;-83
2022/01/21 03:21:03;;;;;;;8.60;8.40;;;-1.20;99.90;;;;;;5087639;28;20232;-82
2022/01/21 03:23:34;;;;;;;8.90;8.70;;;-1.30;99.90;;;;;;5088196;28;20242;-83
2022/01/21 03:26:05;;;;;;;8.83;8.63;;;-1.30;99.90;;;;;;5087691;28;20305;-83
2022/01/21 03:28:33;;;;;;;9.27;8.97;;;-1.40;99.90;;;;;;5085936;28;20237;-82
2022/01/21 03:31:03;;;;;;;9.37;9.07;;;-1.40;99.90;;;;;;5086680;28;20240;-83
2022/01/21 03:33:32;;;;;;;9.40;9.10;;;-1.40;99.90;;;;;;5085567;28;20236;-83
2022/01/21 03:36:02;;;;;;;9.37;9.07;;;-1.40;99.90;;;;;;5087135;28;21107;-82
2022/01/21 03:38:31;;;;;;;9.60;9.30;;;-1.50;99.90;;;;;;5088713;28;20230;-82
2022/01/21 03:41:01;;;;;;;9.90;9.60;;;-1.50;99.90;;;;;;5087397;28;20247;-82
2022/01/21 03:43:39;;;;;;;10.00;9.70;;;-1.50;99.90;;;;;;5090780;28;20262;-82
2022/01/21 03:46:10;;;;;;;9.90;9.60;;;-1.50;99.90;;;;;;5091065;28;20223;-83
2022/01/21 03:49:37;;;;;;;9.93;9.63;;;-1.50;99.90;;;;;;5089538;28;20287;-82
2022/01/21 03:52:20;;;;;;;9.80;9.50;;;-1.50;99.90;;;;;;5088375;28;20297;-81
2022/01/21 03:54:48;;;;;;;10.23;9.93;;;-1.50;99.90;;;;;;5088242;28;20296;-82
2022/01/21 03:57:17;;;;;;;10.30;10.00;;;-1.50;99.90;;;;;;5087827;28;20294;-82
2022/01/21 03:59:55;;;;;;;10.20;9.90;;;-1.50;99.90;;;;;;5088238;28;20324;-82
2022/01/21 04:02:25;;;;;;;10.50;10.20;;;-1.50;99.90;;;;;;5087617;28;20232;-82
2022/01/21 04:04:54;;;;;;;10.30;10.00;;;-1.50;99.90;;;;;;5086400;28;20240;-82
2022/01/21 04:07:23;;;;;;;10.57;10.27;;;-1.60;99.90;;;;;;5086718;28;20228;-82
2022/01/21 04:09:53;;;;;;;10.43;10.13;;;-1.50;99.90;;;;;;5086603;28;20623;-81
2022/01/21 04:12:22;;;;;;;10.13;9.83;;;-1.50;99.90;;;;;;5086508;28;20242;-82
2022/01/21 04:17:38;;;;;;;10.40;10.10;;;-1.50;99.90;;;;;;5097313;28;20210;-81
2022/01/21 04:20:09;;;;;;;10.27;9.97;;;-1.50;99.90;;;;;;5090796;28;20286;-81
2022/01/21 04:22:38;;;;;;;10.57;10.27;;;-1.50;99.90;;;;;;5084822;28;20283;-81
2022/01/21 04:25:07;;;;;;;10.50;10.20;;;-1.50;99.90;;;;;;5085438;28;20264;-82
2022/01/21 04:27:36;;;;;;;10.67;10.37;;;-1.50;99.90;;;;;;5085925;28;20225;-82
2022/01/21 04:30:14;;;;;;;10.40;10.10;;;-1.50;99.90;;;;;;5086063;28;20225;-82
2022/01/21 04:32:43;;;;;;;10.07;9.77;;;-1.40;99.90;;;;;;5086269;28;20239;-81
2022/01/21 04:35:13;;;;;;;10.27;9.97;;;-1.40;99.90;;;;;;5085454;28;20284;-82
2022/01/21 04:37:49;;;;;;;10.57;10.27;;;-1.40;99.90;;;;;;5086232;28;20221;-81
2022/01/21 04:40:23;;;;;;;10.10;9.80;;;-1.40;99.90;;;;;;5086809;28;20236;-82
2022/01/21 04:48:25;;;;;;;10.10;9.80;;;-1.60;99.90;;;;;;5090879;28;20201;-82
2022/01/21 04:50:58;;;;;;;10.27;9.97;;;-1.60;99.90;;;;;;5091008;28;20230;-81
2022/01/21 04:53:33;;;;;;;10.30;10.00;;;-1.70;99.90;;;;;;5089692;28;20237;-82
2022/01/21 04:56:01;;;;;;;10.60;10.30;;;-1.70;99.90;;;;;;5089862;28;20240;-83
2022/01/21 04:58:31;;;;;;;10.70;10.40;;;-1.70;99.90;;;;;;5089991;28;20229;-81
2022/01/21 05:01:09;;;;;;;10.20;9.90;;;-1.70;99.90;;;;;;5090556;28;20333;-82
2022/01/21 05:03:39;;;;;;;10.40;10.10;;;-1.70;99.90;;;;;;5089358;28;20237;-81
2022/01/21 05:06:07;;;;;;;10.17;9.87;;;-1.70;99.90;;;;;;5091836;22;20281;-81
2022/01/21 05:08:42;;;;;;;10.70;10.40;;;-1.70;99.90;;;;;;5062372;28;20264;-80
2022/01/21 05:11:13;;;;;;;10.53;10.23;;;-1.70;99.90;;;;;;5063393;28;20231;-81
2022/01/21 05:13:43;;;;;;;10.67;10.37;;;-1.70;99.90;;;;;;5062166;28;20243;-80
2022/01/21 05:16:29;;;;;;;10.20;9.90;;;-1.80;99.90;;;;;;5077327;28;20233;-80
2022/01/21 05:18:58;;;;;;;10.53;10.23;;;-1.80;99.90;;;;;;5082710;28;20305;-80
2022/01/21 05:21:26;;;;;;;10.50;10.20;;;-1.80;99.90;;;;;;5082511;28;20227;-80
2022/01/21 05:23:54;;;;;;;10.40;10.10;;;-1.80;99.90;;;;;;5088449;28;20239;-80
2022/01/21 05:26:22;;;;;;;10.60;10.30;;;-1.90;99.90;;;;;;5083397;28;20230;-81
2022/01/21 05:28:49;;;;;;;10.40;10.10;;;-1.90;99.90;;;;;;5083578;28;20221;-80
2022/01/21 05:31:18;;;;;;;10.40;10.10;;;-1.90;99.90;;;;;;5083631;28;20241;-82
2022/01/21 05:33:46;;;;;;;10.50;10.20;;;-1.80;99.90;;;;;;5084170;28;20228;-82
2022/01/21 05:36:14;;;;;;;10.60;10.30;;;-1.80;99.90;;;;;;5082736;28;20241;-81
2022/01/21 05:38:42;;;;;;;10.53;10.23;;;-1.70;99.90;;;;;;5084068;28;20227;-81
2022/01/21 05:41:09;;;;;;;10.80;10.50;;;-1.70;99.90;;;;;;5091900;28;20237;-81
2022/01/21 05:43:43;;;;;;;10.40;10.10;;;-1.80;99.90;;;;;;5084954;28;20247;-81
2022/01/21 05:46:33;;;;;;;10.43;10.13;;;-1.80;99.90;;;;;;5082453;28;20236;-81
2022/01/21 05:49:02;;;;;;;10.10;9.80;;;-1.80;99.90;;;;;;5082369;28;20238;-81
2022/01/21 05:51:30;;;;;;;10.47;10.17;;;-1.90;99.90;;;;;;5082713;28;20284;-81
2022/01/21 05:53:58;;;;;;;10.73;10.43;;;-1.90;99.90;;;;;;5083108;28;20234;-81
2022/01/21 05:56:30;;;;;;;10.10;9.80;;;-1.90;99.90;;;;;;5082545;28;20236;-81
2022/01/21 05:59:01;;;;;;;10.40;10.10;;;-1.90;99.90;;;;;;5082821;28;20246;-81
2022/01/21 06:01:29;;;;;;;10.50;10.20;;;-1.90;99.90;;;;;;5082562;28;20329;-81
2022/01/21 06:03:57;;;;;;;10.30;10.00;;;-1.90;99.90;;;;;;5082184;28;20226;-81
2022/01/21 06:06:26;;;;;;;10.50;10.20;;;-1.90;99.90;;;;;;5081495;28;20243;-81
2022/01/21 06:08:54;;;;;;;10.40;10.10;;;-1.80;99.90;;;;;;5082867;28;20240;-82
2022/01/21 06:11:22;;;;;;;10.50;10.20;;;-1.90;99.90;;;;;;5082481;28;20239;-81
2022/01/21 06:13:50;;;;;;;10.20;9.90;;;-1.90;99.90;;;;;;5083080;28;20275;-81
2022/01/21 06:16:18;;;;;;;10.37;10.07;;;-1.90;99.90;;;;;;5082489;28;20225;-81
2022/01/21 06:18:47;;;;;;;10.13;9.83;;;-2.00;99.90;;;;;;5092782;28;20201;-81
2022/01/21 06:21:15;;;;;;;10.30;10.00;;;-2.00;99.90;;;;;;5084050;28;20233;-81
2022/01/21 06:23:45;;;;;;;10.53;10.23;;;-2.00;99.90;;;;;;5092995;28;20232;-81
2022/01/21 06:26:13;;;;;;;10.43;10.13;;;-2.00;99.90;;;;;;5084654;28;20230;-80
2022/01/21 06:28:43;;;;;;;10.77;10.47;;;-2.00;99.90;;;;;;5084054;28;20219;-81
2022/01/21 06:31:11;;;;;;;10.60;10.30;;;-2.00;99.90;;;;;;5083590;28;20243;-81
2022/01/21 06:33:39;;;;;;;10.53;10.23;;;-2.00;99.90;;;;;;5082684;28;20238;-81
2022/01/21 06:36:07;;;;;;;10.60;10.30;;;-1.90;99.90;;;;;;5078452;28;20508;-80
2022/01/21 06:38:35;;;;;;;10.13;9.83;;;-1.90;99.90;;;;;;5080907;28;20267;-80
2022/01/21 06:41:06;;;;;;;10.37;10.07;;;-1.80;99.90;;;;;;5078640;28;20252;-79
2022/01/21 06:43:34;;;;;;;11.20;10.90;;;-1.80;99.90;;;;;;5081406;28;20221;-80
2022/01/21 06:46:01;;;;;;;11.43;11.10;;;-1.70;99.90;;;;;;5081502;28;20233;-80
2022/01/21 06:48:29;;;;;;;11.07;10.77;;;-1.80;99.90;;;;;;5081060;28;20244;-80
2022/01/21 06:50:57;;;;;;;11.40;11.00;;;-1.80;99.90;;;;;;5082020;28;20241;-81
2022/01/21 06:53:25;;;;;;;11.50;11.10;;;-1.80;99.90;;;;;;5081712;28;20236;-80
2022/01/21 06:55:53;;;;;;;11.57;11.17;;;-1.80;99.90;;;;;;5081509;28;20228;-80
2022/01/21 06:58:22;;;;;;;11.67;11.27;;;-1.80;99.90;;;;;;5081886;28;20320;-80
2022/01/21 07:00:50;;;;;;;11.80;11.40;;;-1.80;99.90;;;;;;5081136;28;20267;-80
2022/01/21 07:03:18;;;;;;;12.00;11.60;;;-1.80;99.90;;;;;;5081388;28;20228;-80
2022/01/21 07:05:46;;;;;;;12.27;11.87;;;-1.80;99.90;;;;;;5080289;28;20287;-80
2022/01/21 07:08:16;;;;;;;12.00;11.60;;;-1.80;99.90;;;;;;5080257;28;20235;-80
2022/01/21 07:10:44;;;;;;;11.80;11.40;;;-1.80;99.90;;;;;;5081698;28;20236;-80
2022/01/21 07:13:13;;;;;;;11.80;11.40;;;-1.80;99.90;;;;;;5096479;28;20405;-81
2022/01/21 07:15:43;;;;;;;11.93;11.53;;;-1.80;99.90;;;;;;5098439;28;20233;-81
2022/01/21 07:18:11;;;;;;;11.90;11.50;;;-1.70;99.90;;;;;;5085385;28;20225;-82
2022/01/21 07:20:42;;;;;;;11.70;11.30;;;-1.70;99.90;;;;;;5080297;28;20298;-82
2022/01/21 07:23:10;;;;;;;11.70;11.30;;;-1.70;99.90;;;;;;5078995;28;20231;-81
2022/01/21 07:25:38;;;;;;;11.60;11.20;;;-1.60;99.90;;;;;;5079516;28;20241;-82
2022/01/21 07:28:06;;;;;;;11.80;11.40;;;-1.60;99.90;;;;;;5080227;28;20242;-81
2022/01/21 07:30:34;;;;;;;11.47;11.07;;;-1.60;99.90;;;;;;5073922;28;20234;-81
2022/01/21 07:33:03;;;;;;;11.37;10.97;;;-1.60;99.90;;;;;;5080186;28;20226;-81
2022/01/21 07:35:31;;;;;;;11.60;11.20;;;-1.60;99.90;;;;;;5073403;28;20238;-81
2022/01/21 07:37:59;;;;;;;11.83;11.43;;;-1.60;99.90;;;;;;5067962;28;20291;-81
2022/01/21 07:40:27;;;;;;;11.80;11.40;;;-1.60;99.90;;;;;;5062479;28;21112;-82
2022/01/21 07:42:55;;;;;;;11.37;10.97;;;-1.50;99.90;;;;;;5060547;28;20706;-82
2022/01/21 07:45:23;;;;;;;11.80;11.40;;;-1.50;99.90;;;;;;5061476;28;20299;-81
2022/01/21 07:47:51;;;;;;;11.83;11.43;;;-1.50;99.90;;;;;;5064381;28;20225;-82
2022/01/21 07:50:21;;;;;;;11.50;11.10;;;-1.50;99.90;;;;;;5082356;28;20720;-82
2022/01/21 07:52:48;;;;;;;11.67;11.27;;;-1.40;99.90;;;;;;5083108;28;20232;-82
2022/01/21 07:55:16;;;;;;;11.17;10.83;;;-1.40;99.90;;;;;;5081389;28;20224;-82
2022/01/21 07:57:44;;;;;;;11.60;11.20;;;-1.30;99.90;;;;;;5081751;28;20298;-81
2022/01/21 08:00:14;;;;;;;11.57;11.17;;;-1.30;99.90;;;;;;5080822;28;20393;-81
2022/01/21 08:02:41;;;;;;;11.70;11.30;;;-1.30;99.90;;;;;;5081329;28;20241;-81
2022/01/21 08:05:10;;;;;;;11.47;11.07;;;-1.20;99.90;;;;;;5080188;28;20236;-81
2022/01/21 08:07:39;;;;;;;11.37;10.97;;;-1.20;99.90;;;;;;5081515;28;20224;-81
2022/01/21 08:10:08;;;;;;;11.57;11.17;;;-1.20;99.90;;;;;;5080793;28;20229;-81
2022/01/21 08:12:36;;;;;;;11.70;11.30;;;-1.10;99.90;;;;;;5081910;28;20279;-81
2022/01/21 08:15:05;;;;;;;11.67;11.27;;;-1.10;99.90;;;;;;5082123;28;20230;-81
2022/01/21 08:17:33;;;;;;;11.60;11.20;;;-1.00;99.90;;;;;;5089676;28;20244;-81
2022/01/21 08:20:01;;;;;;;11.00;10.70;;;-1.00;99.90;;;;;;5090343;28;20262;-81
2022/01/21 08:22:29;;;;;;;11.80;11.40;;;-1.00;99.90;;;;;;5083248;28;20233;-81
2022/01/21 08:24:58;;;;;;;11.43;11.07;;;-0.90;99.90;;;;;;5082648;28;20244;-82
2022/01/21 08:27:26;;;;;;;11.67;11.27;;;-0.90;99.90;;;;;;5081892;28;20233;-81
2022/01/21 08:29:54;;;;;;;11.90;11.50;;;-0.90;99.90;;;;;;5081391;28;20233;-82
2022/01/21 08:32:22;;;;;;;11.40;11.00;;;-0.90;99.90;;;;;;5081556;28;20260;-81
2022/01/21 08:34:50;;;;;;;11.70;11.30;;;-0.80;99.90;;;;;;5080498;28;20222;-81
2022/01/21 08:37:18;;;;;;;11.40;11.00;;;-0.80;99.90;;;;;;5080237;28;20222;-81
2022/01/21 08:39:46;;;;;;;11.73;11.33;;;-0.70;99.90;;;;;;5081699;28;20238;-81
2022/01/21 08:42:15;;;;;;;11.53;11.13;;;-0.70;99.90;;;;;;5079781;28;20260;-78
2022/01/21 08:44:43;;;;;;;11.60;11.20;;;-0.40;99.90;;;;;;5080610;28;20244;-81
2022/01/21 08:47:11;;;;;;;11.60;11.20;;;-0.40;99.90;;;;;;5080536;28;20207;-81
2022/01/21 08:49:39;;;;;;;11.33;11.03;;;-0.30;99.90;;;;;;5077533;28;20708;-81
2022/01/21 08:52:07;;;;;;;11.60;11.20;;;-0.10;99.90;;;;;;5079950;28;20245;-81
2022/01/21 08:54:35;;;;;;;11.30;11.00;;;0.00;99.90;;;;;;5072382;28;20229;-82
2022/01/21 08:57:03;;;;;;;11.13;10.83;;;0.10;99.90;;;;;;5081303;28;20225;-82
2022/01/21 08:59:33;;;;;;;10.87;10.57;;;0.20;99.90;;;;;;5080728;28;20229;-82
2022/01/21 09:02:01;;;;;;;10.90;10.60;;;0.10;99.90;;;;;;5081814;28;20249;-82
2022/01/21 09:04:28;;;;;;;10.90;10.60;;;0.20;99.90;;;;;;5077877;28;20241;-82
2022/01/21 09:06:57;;;;;;;11.00;10.70;;;0.20;99.90;;;;;;5078887;28;20229;-82
2022/01/21 09:09:25;;;;;;;10.93;10.63;;;0.20;99.90;;;;;;5079057;28;20230;-82
2022/01/21 09:11:59;;;;;;;10.87;10.57;;;0.30;99.90;;;;;;5078271;28;20230;-82
2022/01/21 09:14:27;;;;;;;10.90;10.60;;;0.40;99.90;;;;;;5079024;28;20233;-80
2022/01/21 09:16:57;;;;;;;11.35;11.05;;;0.40;99.90;;;;;;5078189;28;20421;-83
2022/01/21 09:19:26;;;;;;;10.70;10.40;;;0.50;99.90;;;;;;5079413;28;20330;-83
2022/01/21 09:21:56;;;;;;;10.93;10.63;;;0.60;99.90;;;;;;5078814;28;20239;-81
2022/01/21 09:24:23;;;;;;;11.30;11.00;;;0.60;99.90;;;;;;5080000;28;20230;-83
2022/01/21 09:26:51;;;;;;;10.90;10.60;;;0.70;99.90;;;;;;5080315;28;20259;-83
2022/01/21 09:29:20;;;;;;;10.90;10.60;;;0.70;99.90;;;;;;5080533;28;20276;-83
2022/01/21 09:31:47;;;;;;;10.63;10.33;;;0.70;99.90;;;;;;5081600;28;20253;-84
2022/01/21 09:34:17;;;;;;;10.70;10.40;;;0.70;99.90;;;;;;5084676;28;20234;-83
2022/01/21 09:36:45;;;;;;;10.67;10.37;;;0.70;99.90;;;;;;5083950;28;20249;-84
2022/01/21 09:39:14;;;;;;;11.30;11.00;;;0.70;99.90;;;;;;5083282;28;20245;-84
2022/01/21 09:41:43;;;;;;;10.63;10.33;;;0.70;99.90;;;;;;5083197;28;20229;-84
2022/01/21 09:44:13;;;;;;;10.70;10.40;;;0.60;99.90;;;;;;5083311;28;20384;-82
2022/01/21 09:46:47;;;;;;;11.10;10.80;;;0.60;99.90;;;;;;5083930;28;20234;-82
2022/01/21 09:49:26;;;;;;;10.77;10.47;;;0.50;99.90;;;;;;5081325;28;20226;-82
2022/01/21 09:51:56;;;;;;;10.83;10.53;;;0.60;99.90;;;;;;5083255;28;20328;-82
2022/01/21 09:54:25;;;;;;;10.90;10.60;;;0.70;99.90;;;;;;5082480;28;20663;-82
2022/01/21 09:56:55;;;;;;;11.00;10.70;;;0.80;99.90;;;;;;5082899;28;20245;-82
2022/01/21 09:59:26;;;;;;;10.47;10.17;;;0.90;99.90;;;;;;5083322;28;20790;-82
2022/01/21 10:01:56;;;;;;;10.60;10.30;;;0.90;99.90;;;;;;5083931;28;20230;-82
2022/01/21 10:04:30;;;;;;;10.50;10.20;;;0.90;99.90;;;;;;5083568;28;20233;-82
2022/01/21 10:06:59;;;;;;;10.00;9.70;;;1.00;99.90;;;;;;5083713;28;20225;-83
2022/01/21 10:09:28;;;;;;;10.47;10.17;;;1.00;99.90;;;;;;5083886;28;20234;-82
2022/01/21 10:11:58;;;;;;;10.43;10.13;;;1.00;99.90;;;;;;5084379;28;20233;-82
2022/01/21 10:14:28;;;;;;;9.90;9.60;;;1.10;99.90;;;;;;5084995;28;20226;-82
2022/01/21 10:16:58;;;;;;;10.20;9.90;;;1.20;99.90;;;;;;5091020;28;20217;-82
2022/01/21 10:19:30;;;;;;;9.93;9.63;;;1.20;99.90;;;;;;5086651;28;20230;-82
2022/01/21 10:22:05;;;;;;;10.10;9.80;;;1.30;99.90;;;;;;5084076;28;20238;-82
2022/01/21 10:24:35;;;;;;;10.50;10.20;;;1.30;99.90;;;;;;5082937;28;20233;-82
2022/01/21 10:27:04;;;;;;;10.30;10.00;;;1.40;99.90;;;;;;5083554;28;20223;-83
2022/01/21 10:29:41;;;;;;;10.60;10.30;;;1.40;99.90;;;;;;5083083;28;20238;-82
2022/01/21 10:32:10;;;;;;;10.30;10.00;;;1.40;99.90;;;;;;5082857;28;20230;-82
2022/01/21 10:34:43;;;;;;;10.20;9.90;;;1.50;99.90;;;;;;5082755;28;20732;-82
2022/01/21 10:37:26;;;;;;;10.30;10.00;;;1.50;99.90;;;;;;5083499;28;20230;-84
2022/01/21 10:40:00;;;;;;;9.97;9.67;;;1.60;99.90;;;;;;5083571;28;20233;-83
2022/01/21 10:42:29;;;;;;;9.90;9.60;;;1.60;99.90;;;;;;5082453;28;20236;-83
2022/01/21 10:44:57;;;;;;;10.10;9.80;;;1.70;99.90;;;;;;5082479;28;20238;-83
2022/01/21 10:47:31;;;;;;;10.30;10.00;;;1.70;99.90;;;;;;5082842;28;20247;-83
2022/01/21 10:50:05;;;;;;;10.03;9.73;;;1.70;99.90;;;;;;5082816;28;20237;-82
2022/01/21 10:52:38;;;;;;;10.43;10.13;;;1.70;99.90;;;;;;5083207;28;20295;-83
2022/01/21 10:55:27;;;;;;;10.40;10.10;;;1.80;99.90;;;;;;5082397;28;20256;-79
2022/01/21 10:58:09;;;;;;;10.40;10.10;;;1.70;99.90;;;;;;5098728;28;20272;-80
2022/01/21 11:00:37;;;;;;;9.90;9.60;;;1.70;99.90;;;;;;5114692;28;20217;-83
2022/01/21 11:03:14;;;;;;;10.27;9.97;;;1.60;99.90;;;;;;5110671;28;20308;-84
2022/01/21 11:05:49;;;;;;;10.20;9.90;;;1.70;99.90;;;;;;5119780;22;20233;-85
2022/01/21 11:08:19;;;;;;;9.90;9.60;;;1.80;99.90;;;;;;5089641;28;20218;-84
2022/01/21 11:11:16;;;;;;;10.40;10.10;;;1.80;99.90;;;;;;5088355;28;20253;-84
2022/01/21 11:17:15;;;;;;;9.90;9.60;;;1.80;99.90;;;;;;5088988;28;20265;-83
2022/01/21 11:20:08;;;;;;;10.20;9.90;;;1.80;99.90;;;;;;5089626;28;20218;-83
2022/01/21 11:23:03;;;;;;;9.90;9.60;;;1.70;99.90;;;;;;5093685;28;20234;-80
2022/01/21 11:25:44;;;;;;;10.00;9.70;;;1.70;99.90;;;;;;5089161;28;20234;-83
2022/01/21 11:28:12;;;;;;;10.23;9.93;;;1.70;99.90;;;;;;5088933;28;20287;-83
2022/01/21 11:30:42;;;;;;;9.80;9.50;;;1.70;99.90;;;;;;5089521;28;20234;-82
2022/01/21 11:33:12;;;;;;;9.97;9.67;;;1.70;99.90;;;;;;5092523;28;20305;-83
2022/01/21 11:35:41;;;;;;;10.20;9.90;;;1.80;99.90;;;;;;5091361;28;20257;-83
2022/01/21 11:38:28;;;;;;;10.40;10.10;;;1.80;99.90;;;;;;5088828;28;20242;-83
2022/01/21 11:40:59;;;;;;;10.40;10.10;;;1.80;99.90;;;;;;5087312;28;20222;-83
2022/01/21 11:43:30;;;;;;;10.57;10.27;;;1.90;99.90;;;;;;5086602;28;20260;-83
2022/01/21 11:46:36;;;;;;;10.50;10.20;;;1.80;99.90;;;;;;5085984;28;21112;-83
2022/01/21 11:49:18;;;;;;;10.80;10.50;;;1.90;99.90;;;;;;5085446;28;20244;-84
2022/01/21 11:51:47;;;;;;;10.20;9.90;;;1.80;99.90;;;;;;5084866;28;20280;-82
2022/01/21 11:54:26;;;;;;;10.03;9.73;;;1.80;99.90;;;;;;5077700;28;20314;-83
2022/01/21 11:59:51;;;;;;;10.40;10.10;;;1.80;99.90;;;;;;5086557;28;20285;-83
2022/01/21 12:02:29;;;;;;;9.90;9.60;;;1.90;99.90;;;;;;5087714;28;20230;-83
2022/01/21 12:07:54;;;;;;;9.93;9.63;;;2.10;99.90;;;;;;5098142;28;20209;-87
2022/01/21 12:13:37;;;;;;;9.83;9.53;;;2.30;99.90;;;;;;5100481;28;20213;-86
2022/01/21 12:16:26;;;;;;;9.90;9.60;;;2.40;99.90;;;;;;5094253;28;20301;-88
2022/01/21 12:19:32;;;;;;;10.20;9.90;;;2.40;99.90;;;;;;5088754;28;20248;-85
2022/01/21 12:22:31;;;;;;;10.17;9.87;;;2.30;99.90;;;;;;5088260;28;20253;-86
2022/01/21 12:25:13;;;;;;;9.60;9.30;;;2.20;99.90;;;;;;5089478;28;20241;-86
2022/01/21 12:28:28;;;;;;;9.63;9.33;;;2.20;99.90;;;;;;5092491;28;20218;-84
2022/01/21 12:31:04;;;;;;;9.77;9.47;;;2.20;99.90;;;;;;5089825;28;20295;-83
2022/01/21 12:36:56;;;;;;;9.60;9.30;;;2.20;99.90;;;;;;5066287;28;20225;-83
2022/01/21 12:40:11;;;;;;;9.77;9.47;;;2.00;99.90;;;;;;5084160;28;20233;-84
2022/01/21 12:42:46;;;;;;;10.10;9.80;;;2.00;99.90;;;;;;5086386;28;20294;-85
2022/01/21 12:45:25;;;;;;;10.30;10.00;;;2.00;99.90;;;;;;5085883;28;20240;-85
2022/01/21 12:51:20;;;;;;;9.13;8.87;;;2.00;99.90;;;;;;5083832;28;20226;-84
2022/01/21 12:56:50;;;;;;;9.30;9.00;;;2.10;99.90;;;;;;5086125;28;20210;-83
2022/01/21 12:59:28;;;;;;;9.60;9.30;;;2.00;99.90;;;;;;5087693;28;20237;-83
2022/01/21 13:02:05;;;;;;;9.90;9.60;;;2.00;99.90;;;;;;5068744;28;20226;-84
2022/01/21 13:04:47;;;;;;;9.70;9.40;;;2.00;99.90;;;;;;5076429;28;20693;-83
2022/01/21 13:07:26;;;;;;;9.60;9.30;;;2.00;99.90;;;;;;5092953;28;20238;-83
2022/01/21 13:10:12;;;;;;;9.83;9.53;;;2.10;99.90;;;;;;5102409;28;20217;-82
2022/01/21 13:13:13;;;;;;;10.20;9.90;;;2.10;99.90;;;;;;5101123;28;20222;-84
2022/01/21 13:18:50;;;;;;;10.10;9.80;;;2.10;99.90;;;;;;5071332;28;20230;-84
2022/01/21 13:22:03;;;;;;;9.90;9.60;;;2.10;99.90;;;;;;5069103;28;20266;-84
2022/01/21 13:25:26;;;;;;;9.80;9.50;;;2.20;99.90;;;;;;5069716;28;20773;-84
2022/01/21 13:28:31;;;;;;;10.00;9.70;;;2.30;99.90;;;;;;5069183;28;20242;-85
2022/01/21 13:39:05;;;;;;;9.90;9.60;;;2.10;99.90;;;;;;5028472;28;20247;-83
2022/01/21 13:44:48;;;;;;;10.00;9.70;;;1.90;99.90;;;;;;5089569;28;20276;-84
2022/01/21 13:47:36;;;;;;;9.80;9.50;;;1.90;99.90;;;;;;5089150;28;20225;-84
2022/01/21 13:50:13;;;;;;;9.50;9.20;;;1.90;99.90;;;;;;5098304;28;20214;-83
2022/01/21 13:52:51;;;;;;;9.37;9.07;;;2.00;99.90;;;;;;5099823;28;20226;-84
2022/01/21 13:55:41;;;;;;;9.30;9.00;;;2.00;99.90;;;;;;5084859;28;20244;-83
2022/01/21 13:58:16;;;;;;;9.93;9.63;;;2.10;99.90;;;;;;5088701;28;20237;-83
2022/01/21 14:00:54;;;;;;;9.73;9.43;;;2.00;99.90;;;;;;5088548;28;20230;-84
2022/01/21 14:03:23;;;;;;;9.60;9.30;;;2.00;99.90;;;;;;5088529;28;20230;-84
2022/01/21 14:05:55;;;;;;;10.10;9.80;;;2.00;99.90;;;;;;5088990;28;20290;-84
2022/01/21 14:08:34;;;;;;;10.07;9.77;;;2.00;99.90;;;;;;5089540;28;20223;-85
2022/01/21 14:11:10;;;;;;;9.77;9.47;;;1.90;99.90;;;;;;5091287;28;20214;-84
2022/01/21 14:13:48;;;;;;;10.07;9.77;;;1.90;99.90;;;;;;5089245;28;20241;-84
2022/01/21 14:16:26;;;;;;;10.23;9.93;;;1.90;99.90;;;;;;5093993;28;20323;-85
2022/01/21 14:18:56;;;;;;;10.20;9.90;;;1.90;99.90;;;;;;5086946;28;20240;-85
2022/01/21 14:21:34;;;;;;;10.60;10.30;;;1.90;99.90;;;;;;5089892;28;20234;-84
2022/01/21 14:24:21;;;;;;;10.10;9.80;;;1.90;99.90;;;;;;5093344;28;20234;-86
2022/01/21 14:26:59;;;;;;;10.20;9.90;;;1.80;99.90;;;;;;5094519;28;20226;-85
2022/01/21 14:29:49;;;;;;;10.40;10.10;;;1.80;99.90;;;;;;5092425;28;20219;-85